Time;durP1;ratioP1;P1;durP2;ratioP2;P2;SDS_P1;SDS_P2;PMS_P1;PMS_P2;Temp;Humidity;BMP_temperature;BMP_pressure;BME280_temperature;BME280_humidity;BME280_pressure;Samples;Min_cycle;Max_cycle;Signal;HPM_P1;HPM_P2
2021/11/26 00:00:13;;;;;;;41.33;17.00;;;;;;;3.47;87.71;99807.19;5030477;28;20237;-82
2021/11/26 00:02:41;;;;;;;44.43;17.10;;;;;;;3.46;87.88;99805.47;5030237;28;20206;-83
2021/11/26 00:05:10;;;;;;;37.70;16.80;;;;;;;3.48;87.61;99798.38;5030274;28;20219;-82
2021/11/26 00:07:36;;;;;;;44.87;17.57;;;;;;;3.45;87.57;99791.47;5026843;28;20293;-82
2021/11/26 00:10:04;;;;;;;38.70;16.60;;;;;;;3.46;87.38;99784.44;5030063;28;20234;-82
2021/11/26 00:12:32;;;;;;;38.97;16.83;;;;;;;3.46;87.91;99779.16;5028148;28;20199;-83
2021/11/26 00:15:12;;;;;;;41.97;16.23;;;;;;;3.47;87.70;99784.34;5029791;28;20233;-83
2021/11/26 00:17:45;;;;;;;35.73;16.03;;;;;;;3.45;87.88;99778.31;5031005;28;20280;-83
2021/11/26 00:20:13;;;;;;;40.27;16.67;;;;;;;3.45;87.21;99780.09;5028593;28;20265;-82
2021/11/26 00:22:41;;;;;;;46.70;16.10;;;;;;;3.44;87.81;99778.38;5022883;28;20195;-83
2021/11/26 00:25:08;;;;;;;43.87;16.50;;;;;;;3.39;87.95;99772.50;5028026;28;20215;-82
2021/11/26 00:27:35;;;;;;;41.70;15.90;;;;;;;3.38;87.36;99776.91;5032837;28;20206;-82
2021/11/26 00:30:02;;;;;;;37.27;16.23;;;;;;;3.37;87.04;99775.22;5031852;28;20233;-83
2021/11/26 00:32:28;;;;;;;41.37;17.10;;;;;;;3.37;87.31;99772.56;5031756;28;20202;-82
2021/11/26 00:34:55;;;;;;;46.10;17.53;;;;;;;3.36;87.85;99773.50;5030753;28;20202;-83
2021/11/26 00:37:23;;;;;;;41.20;16.67;;;;;;;3.37;87.90;99775.22;5024932;28;20206;-83
2021/11/26 00:39:50;;;;;;;39.53;16.00;;;;;;;3.38;87.28;99771.66;5030186;28;20218;-82
2021/11/26 00:42:17;;;;;;;39.70;15.67;;;;;;;3.37;87.60;99767.31;5022229;28;20711;-84
2021/11/26 00:44:44;;;;;;;36.00;15.07;;;;;;;3.37;88.10;99769.94;5023434;28;20202;-83
2021/11/26 00:47:11;;;;;;;38.03;15.60;;;;;;;3.38;87.87;99774.28;5021487;28;20207;-83
2021/11/26 00:49:37;;;;;;;31.23;14.40;;;;;;;3.39;87.41;99773.34;5040081;28;20226;-83
2021/11/26 00:52:04;;;;;;;38.50;15.70;;;;;;;3.39;87.65;99757.56;5038644;28;20206;-83
2021/11/26 00:54:33;;;;;;;38.30;14.97;;;;;;;3.39;87.97;99762.84;5042500;28;20214;-83
2021/11/26 00:56:59;;;;;;;35.73;15.70;;;;;;;3.42;87.41;99748.66;5040269;28;20627;-83
2021/11/26 00:59:26;;;;;;;39.33;15.60;;;;;;;3.43;87.72;99747.72;5047719;28;20230;-84
2021/11/26 01:01:52;;;;;;;37.90;16.73;;;;;;;3.42;87.66;99752.13;5041030;28;20233;-84
2021/11/26 01:04:19;;;;;;;32.13;14.27;;;;;;;3.41;87.37;99734.63;5034010;28;20206;-83
2021/11/26 01:06:45;;;;;;;37.57;14.83;;;;;;;3.42;87.48;99738.13;5036011;28;20206;-84
2021/11/26 01:09:12;;;;;;;39.80;14.00;;;;;;;3.44;88.13;99734.47;5032098;28;20699;-83
2021/11/26 01:11:40;;;;;;;39.00;15.10;;;;;;;3.44;87.90;99733.63;5042309;28;20202;-83
2021/11/26 01:14:06;;;;;;;33.10;14.20;;;;;;;3.45;87.86;99723.03;5030723;28;20661;-83
2021/11/26 01:16:33;;;;;;;37.30;14.20;;;;;;;3.48;87.59;99720.25;5027991;28;20203;-83
2021/11/26 01:18:59;;;;;;;29.57;13.30;;;;;;;3.50;87.74;99717.53;5036766;28;20564;-80
2021/11/26 01:21:26;;;;;;;33.97;13.90;;;;;;;3.52;87.45;99704.31;5034441;28;20574;-80
2021/11/26 01:23:53;;;;;;;35.37;13.57;;;;;;;3.55;87.91;99709.44;5047690;28;20214;-80
2021/11/26 01:26:19;;;;;;;35.83;13.73;;;;;;;3.57;87.83;99702.31;5041921;28;20216;-79
2021/11/26 01:28:49;;;;;;;32.87;13.97;;;;;;;3.58;87.14;99698.75;5052140;28;20221;-82
2021/11/26 01:31:16;;;;;;;29.80;13.00;;;;;;;3.60;87.54;99696.88;5036348;28;20225;-81
2021/11/26 01:33:42;;;;;;;32.80;13.93;;;;;;;3.60;87.30;99697.72;5058510;28;20293;-81
2021/11/26 01:36:09;;;;;;;31.93;12.87;;;;;;;3.63;87.45;99686.19;5047228;28;20209;-81
2021/11/26 01:38:36;;;;;;;33.60;13.97;;;;;;;3.63;87.22;99689.69;5058958;28;20229;-80
2021/11/26 01:41:04;;;;;;;29.53;12.97;;;;;;;3.66;87.54;99691.31;5043795;28;20223;-80
2021/11/26 01:43:31;;;;;;;32.23;13.50;;;;;;;3.67;87.34;99682.47;5039873;28;20206;-80
2021/11/26 01:46:06;;;;;;;30.93;12.27;;;;;;;3.71;87.44;99678.78;5035715;28;20214;-80
2021/11/26 01:48:32;;;;;;;30.43;13.40;;;;;;;3.71;86.93;99676.13;5030590;28;20252;-80
2021/11/26 01:50:59;;;;;;;33.97;14.27;;;;;;;3.75;86.66;99675.06;5038914;28;20216;-81
2021/11/26 01:53:26;;;;;;;28.67;13.03;;;;;;;3.75;87.43;99678.53;5056678;28;20216;-80
2021/11/26 01:55:53;;;;;;;28.20;13.37;;;;;;;3.74;86.88;99674.22;5054944;28;20206;-80
2021/11/26 01:58:19;;;;;;;29.23;11.90;;;;;;;3.75;86.54;99668.00;5041555;28;20233;-80
2021/11/26 02:00:47;;;;;;;29.97;13.60;;;;;;;3.77;87.51;99675.81;5051495;28;20209;-80
2021/11/26 02:03:16;;;;;;;33.97;13.47;;;;;;;3.79;86.62;99655.50;5049242;28;20205;-80
2021/11/26 02:05:43;;;;;;;26.03;13.27;;;;;;;3.80;86.45;99651.94;5058404;28;20220;-80
2021/11/26 02:08:10;;;;;;;28.63;13.00;;;;;;;3.81;86.57;99648.38;5040927;28;20203;-80
2021/11/26 02:10:37;;;;;;;31.03;13.37;;;;;;;3.82;86.93;99636.94;5051055;28;20213;-80
2021/11/26 02:13:05;;;;;;;34.43;13.90;;;;;;;3.83;86.58;99642.13;5039478;28;20197;-80
2021/11/26 02:15:39;;;;;;;32.70;13.43;;;;;;;3.82;86.41;99636.94;5044540;28;20715;-80
2021/11/26 02:18:06;;;;;;;33.23;13.17;;;;;;;3.84;86.20;99630.66;5056970;28;20224;-80
2021/11/26 02:20:34;;;;;;;37.30;14.40;;;;;;;3.86;86.70;99624.44;5046854;28;20226;-81
2021/11/26 02:23:02;;;;;;;34.90;14.00;;;;;;;3.86;86.65;99617.41;5026921;28;20245;-80
2021/11/26 02:25:29;;;;;;;36.83;14.07;;;;;;;3.87;86.11;99616.47;5031036;28;20222;-80
2021/11/26 02:27:59;;;;;;;38.50;13.90;;;;;;;3.86;85.95;99614.78;5027613;28;20212;-80
2021/11/26 02:30:27;;;;;;;36.10;14.30;;;;;;;3.88;86.37;99606.78;5048966;28;20225;-81
2021/11/26 02:32:56;;;;;;;29.57;14.07;;;;;;;3.89;86.08;99598.81;5049598;28;20205;-80
2021/11/26 02:35:24;;;;;;;36.83;13.87;;;;;;;3.89;86.01;99601.44;5056547;28;20243;-80
2021/11/26 02:37:52;;;;;;;41.23;14.10;;;;;;;3.90;86.15;99597.03;5057043;28;20210;-81
2021/11/26 02:40:24;;;;;;;35.00;16.03;;;;;;;3.89;86.10;99584.78;5050697;28;20298;-81
2021/11/26 02:42:51;;;;;;;36.20;15.00;;;;;;;3.88;85.71;99586.56;5048872;28;20229;-80
2021/11/26 02:45:20;;;;;;;37.83;14.57;;;;;;;3.88;85.98;99589.22;5023316;28;20297;-79
2021/11/26 02:47:47;;;;;;;42.40;14.53;;;;;;;3.87;85.40;99589.28;5046152;28;20743;-79
2021/11/26 02:50:15;;;;;;;34.33;14.73;;;;;;;3.86;85.38;99566.50;5040321;28;20254;-80
2021/11/26 02:52:42;;;;;;;36.73;15.07;;;;;;;3.85;85.74;99581.47;5028207;28;20206;-80
2021/11/26 02:55:13;;;;;;;39.03;14.97;;;;;;;3.84;85.22;99577.13;5041679;28;20219;-80
2021/11/26 02:57:40;;;;;;;35.53;14.23;;;;;;;3.84;84.71;99566.59;5050179;28;20207;-80
2021/11/26 03:00:09;;;;;;;40.30;14.93;;;;;;;3.80;85.19;99563.25;5034396;28;20235;-80
2021/11/26 03:02:36;;;;;;;27.20;12.50;;;;;;;3.82;85.51;99547.38;5046126;28;20248;-80
2021/11/26 03:05:03;;;;;;;36.33;14.93;;;;;;;3.82;85.36;99557.91;5039569;28;20213;-81
2021/11/26 03:07:30;;;;;;;29.87;13.73;;;;;;;3.81;84.85;99548.31;5040934;28;20205;-80
2021/11/26 03:09:57;;;;;;;29.40;13.03;;;;;;;3.79;84.80;99552.81;5053384;28;20237;-80
2021/11/26 03:12:25;;;;;;;40.33;13.33;;;;;;;3.78;84.76;99544.06;5047221;28;20202;-80
2021/11/26 03:14:52;;;;;;;36.00;12.87;;;;;;;3.77;85.29;99541.50;5050029;28;20588;-80
2021/11/26 03:17:18;;;;;;;36.57;13.63;;;;;;;3.77;84.65;99541.50;5053118;28;20228;-80
2021/11/26 03:19:45;;;;;;;33.87;13.77;;;;;;;3.74;84.56;99525.88;5044695;28;20230;-80
2021/11/26 03:22:12;;;;;;;32.10;12.73;;;;;;;3.73;84.87;99525.03;5028770;28;20232;-80
2021/11/26 03:24:39;;;;;;;36.83;13.17;;;;;;;3.74;84.81;99516.19;5025230;28;20210;-80
2021/11/26 03:27:05;;;;;;;34.27;13.27;;;;;;;3.73;84.55;99500.47;5050379;28;20206;-80
2021/11/26 03:29:34;;;;;;;27.80;11.77;;;;;;;3.69;84.53;99505.06;5037105;28;20229;-80
2021/11/26 03:32:00;;;;;;;35.10;12.63;;;;;;;3.71;84.25;99504.97;5051378;28;20206;-80
2021/11/26 03:34:27;;;;;;;34.53;14.27;;;;;;;3.69;84.05;99506.84;5033261;28;20213;-79
2021/11/26 03:36:53;;;;;;;33.10;13.30;;;;;;;3.68;84.14;99508.63;5046397;28;20209;-80
2021/11/26 03:39:20;;;;;;;31.77;13.57;;;;;;;3.69;84.65;99512.97;5047059;28;20224;-80
2021/11/26 03:41:47;;;;;;;42.30;14.33;;;;;;;3.68;84.11;99510.41;5046982;28;20233;-81
2021/11/26 03:44:14;;;;;;;32.83;13.27;;;;;;;3.68;84.56;99510.41;5051406;28;20647;-80
2021/11/26 03:46:42;;;;;;;35.23;12.07;;;;;;;3.66;84.25;99502.59;5049455;28;20205;-80
2021/11/26 03:49:08;;;;;;;32.90;12.13;;;;;;;3.68;84.27;99499.88;5051258;28;20234;-80
2021/11/26 03:51:35;;;;;;;31.67;13.30;;;;;;;3.67;84.42;99503.44;5044947;28;20230;-80
2021/11/26 03:54:01;;;;;;;33.17;13.80;;;;;;;3.66;83.62;99499.94;5043891;28;20697;-80
2021/11/26 03:56:28;;;;;;;30.87;12.67;;;;;;;3.68;83.54;99489.34;5025076;28;20216;-80
2021/11/26 03:58:55;;;;;;;32.47;13.10;;;;;;;3.67;84.17;99492.91;5029414;28;20263;-80
2021/11/26 04:01:21;;;;;;;32.00;12.43;;;;;;;3.66;83.61;99484.16;5044490;28;20209;-80
2021/11/26 04:03:49;;;;;;;37.20;14.03;;;;;;;3.64;83.47;99477.25;5024384;28;20246;-80
2021/11/26 04:06:16;;;;;;;36.27;14.40;;;;;;;3.62;84.04;99474.72;5017937;28;20571;-80
2021/11/26 04:08:42;;;;;;;31.23;12.73;;;;;;;3.60;83.76;99466.03;5044465;28;20455;-80
2021/11/26 04:11:09;;;;;;;34.93;12.87;;;;;;;3.60;83.73;99468.66;5058520;28;20305;-80
2021/11/26 04:13:36;;;;;;;30.53;11.70;;;;;;;3.59;83.49;99458.22;5053336;28;20648;-81
2021/11/26 04:16:05;;;;;;;37.67;13.80;;;;;;;3.59;83.65;99455.59;5063624;28;20220;-81
2021/11/26 04:18:33;;;;;;;31.60;11.90;;;;;;;3.60;83.68;99449.41;5054862;28;20225;-82
2021/11/26 04:21:02;;;;;;;34.20;12.70;;;;;;;3.61;83.06;99459.00;5038014;28;20728;-80
2021/11/26 04:23:28;;;;;;;31.97;11.97;;;;;;;3.59;84.12;99447.69;5047143;28;20676;-81
2021/11/26 04:25:55;;;;;;;35.00;13.17;;;;;;;3.58;83.90;99441.59;5061329;28;20312;-82
2021/11/26 04:28:22;;;;;;;35.27;12.40;;;;;;;3.58;83.24;99440.75;5041641;28;20211;-82
2021/11/26 04:30:49;;;;;;;34.47;12.80;;;;;;;3.57;83.70;99434.63;5063164;28;20214;-81
2021/11/26 04:33:15;;;;;;;34.57;11.63;;;;;;;3.55;83.48;99443.56;5062590;28;20201;-81
2021/11/26 04:35:42;;;;;;;31.17;11.63;;;;;;;3.55;83.62;99440.91;5063299;28;20206;-81
2021/11/26 04:38:10;;;;;;;35.07;12.17;;;;;;;3.55;83.88;99435.66;5035027;28;20226;-80
2021/11/26 04:40:37;;;;;;;27.53;11.87;;;;;;;3.55;83.51;99439.13;5061223;28;20218;-81
2021/11/26 04:43:03;;;;;;;28.00;12.13;;;;;;;3.56;83.20;99434.72;5044484;28;20227;-81
2021/11/26 04:45:30;;;;;;;28.43;11.37;;;;;;;3.58;83.85;99438.13;5056976;28;20557;-81
2021/11/26 04:47:56;;;;;;;30.23;11.07;;;;;;;3.59;83.25;99424.84;5041882;28;20649;-81
2021/11/26 04:50:23;;;;;;;29.10;11.17;;;;;;;3.59;83.36;99429.25;5056789;28;20225;-80
2021/11/26 04:52:49;;;;;;;28.03;11.07;;;;;;;3.60;83.44;99418.66;5052703;28;20216;-80
2021/11/26 04:55:18;;;;;;;29.57;11.67;;;;;;;3.60;83.34;99413.38;5058408;28;20210;-80
2021/11/26 04:57:45;;;;;;;28.03;11.70;;;;;;;3.62;83.12;99402.78;5060330;28;20204;-81
2021/11/26 05:00:15;;;;;;;24.53;9.37;;;;;;;3.64;82.63;99403.53;5059965;28;20234;-80
2021/11/26 05:02:42;;;;;;;26.67;11.13;;;;;;;3.65;82.59;99403.47;5039242;28;20734;-80
2021/11/26 05:05:09;;;;;;;24.83;10.00;;;;;;;3.64;82.53;99393.00;5045831;28;20220;-81
2021/11/26 05:07:36;;;;;;;24.57;10.00;;;;;;;3.65;82.70;99394.72;5040583;28;20212;-81
2021/11/26 05:10:03;;;;;;;24.53;10.40;;;;;;;3.63;83.00;99389.53;5056067;28;20228;-81
2021/11/26 05:12:35;;;;;;;25.80;10.83;;;;;;;3.63;82.79;99388.69;5043690;28;20690;-81
2021/11/26 05:15:02;;;;;;;19.83;9.03;;;;;;;3.62;82.37;99386.97;5056652;28;20742;-81
2021/11/26 05:17:28;;;;;;;25.77;10.37;;;;;;;3.60;82.64;99371.25;5038360;28;20202;-80
2021/11/26 05:19:55;;;;;;;22.70;10.80;;;;;;;3.61;82.80;99374.75;5039790;28;20291;-80
2021/11/26 05:22:22;;;;;;;26.17;9.50;;;;;;;3.60;82.92;99365.16;5035513;28;20237;-80
2021/11/26 05:24:48;;;;;;;24.57;10.23;;;;;;;3.58;82.91;99365.25;5049996;28;20204;-81
2021/11/26 05:27:15;;;;;;;25.60;10.97;;;;;;;3.58;82.33;99364.41;5045878;28;20203;-81
2021/11/26 05:29:43;;;;;;;19.27;8.83;;;;;;;3.60;82.65;99354.63;5053330;28;20221;-81
2021/11/26 05:32:11;;;;;;;21.50;10.27;;;;;;;3.57;82.36;99350.41;5046351;28;20274;-81
2021/11/26 05:34:38;;;;;;;26.80;10.30;;;;;;;3.57;82.35;99344.28;5048220;28;20210;-82
2021/11/26 05:37:05;;;;;;;24.73;10.23;;;;;;;3.58;83.01;99341.56;5036846;28;20278;-80
2021/11/26 05:39:32;;;;;;;21.97;9.07;;;;;;;3.57;82.58;99341.66;5034309;28;20318;-81
2021/11/26 05:41:59;;;;;;;22.53;10.33;;;;;;;3.57;82.35;99344.28;5032192;28;20294;-81
2021/11/26 05:44:25;;;;;;;24.90;9.67;;;;;;;3.58;82.91;99341.56;5033115;28;20301;-81
2021/11/26 05:46:53;;;;;;;27.27;10.00;;;;;;;3.58;82.37;99333.69;5033462;28;20314;-82
2021/11/26 05:49:20;;;;;;;23.20;8.27;;;;;;;3.61;83.03;99340.53;5029674;28;20233;-81
2021/11/26 05:51:46;;;;;;;22.47;9.63;;;;;;;3.63;83.20;99336.03;5037147;28;20266;-81
2021/11/26 05:54:13;;;;;;;20.53;10.27;;;;;;;3.63;82.73;99320.22;5038736;28;20217;-82
2021/11/26 05:56:40;;;;;;;21.70;10.40;;;;;;;3.66;82.96;99328.81;5037094;28;20206;-80
2021/11/26 05:59:07;;;;;;;18.83;9.20;;;;;;;3.68;83.20;99320.84;5045952;28;20223;-81
2021/11/26 06:01:33;;;;;;;19.03;9.33;;;;;;;3.71;82.98;99315.41;5047020;28;20178;-81
2021/11/26 06:04:01;;;;;;;23.00;9.33;;;;;;;3.72;82.81;99315.31;5046299;28;20231;-81
2021/11/26 06:06:30;;;;;;;21.50;9.27;;;;;;;3.72;83.28;99317.09;5043110;28;20202;-82
2021/11/26 06:08:57;;;;;;;23.13;9.13;;;;;;;3.75;83.25;99317.78;5043947;28;20217;-80
2021/11/26 06:11:24;;;;;;;21.63;9.77;;;;;;;3.77;82.73;99309.75;5043941;28;20226;-81
2021/11/26 06:13:50;;;;;;;19.87;8.50;;;;;;;3.78;83.11;99306.19;5041557;28;20202;-81
2021/11/26 06:16:17;;;;;;;19.03;9.40;;;;;;;3.79;82.79;99302.63;5031022;28;20215;-81
2021/11/26 06:18:43;;;;;;;22.03;9.53;;;;;;;3.80;83.48;99299.91;5032160;28;20290;-81
2021/11/26 06:21:11;;;;;;;19.73;9.33;;;;;;;3.81;83.06;99298.13;5032728;28;20627;-81
2021/11/26 06:23:38;;;;;;;17.10;9.13;;;;;;;3.81;83.14;99298.13;5027775;28;20226;-81
2021/11/26 06:26:04;;;;;;;19.90;9.30;;;;;;;3.83;82.82;99296.25;5031952;28;20202;-80
2021/11/26 06:28:31;;;;;;;22.50;9.10;;;;;;;3.83;83.15;99291.84;5033307;28;20229;-81
2021/11/26 06:30:57;;;;;;;19.37;9.30;;;;;;;3.84;82.96;99287.41;5033236;28;20209;-80
2021/11/26 06:33:24;;;;;;;17.73;8.17;;;;;;;3.86;83.01;99296.09;5047146;28;20224;-81
2021/11/26 06:35:50;;;;;;;20.57;9.30;;;;;;;3.87;83.12;99287.25;5056592;28;20217;-81
2021/11/26 06:38:18;;;;;;;25.17;8.57;;;;;;;3.88;83.07;99281.03;5062789;28;20316;-81
2021/11/26 06:40:45;;;;;;;23.97;9.07;;;;;;;3.89;82.92;99287.16;5051584;28;20217;-81
2021/11/26 06:43:11;;;;;;;24.67;7.90;;;;;;;3.89;82.56;99277.47;5053380;28;20234;-80
2021/11/26 06:45:38;;;;;;;21.43;9.43;;;;;;;3.90;83.05;99279.19;5047421;28;20205;-82
2021/11/26 06:48:05;;;;;;;21.57;8.63;;;;;;;3.93;82.54;99279.00;5062966;28;20217;-81
2021/11/26 06:50:32;;;;;;;16.60;8.13;;;;;;;3.96;82.60;99277.94;5061909;28;20577;-81
2021/11/26 06:52:58;;;;;;;20.30;8.73;;;;;;;3.97;82.46;99272.59;5062647;28;20205;-80
2021/11/26 06:55:26;;;;;;;24.37;9.17;;;;;;;3.99;82.94;99269.88;5038902;28;20221;-80
2021/11/26 06:57:53;;;;;;;17.33;7.53;;;;;;;4.01;82.51;99271.50;5063051;28;20205;-80
2021/11/26 07:00:20;;;;;;;16.33;8.67;;;;;;;4.03;82.30;99264.34;5063127;28;20843;-80
2021/11/26 07:02:47;;;;;;;21.97;8.80;;;;;;;4.04;82.38;99266.03;5062895;28;20249;-80
2021/11/26 07:05:14;;;;;;;26.83;8.13;;;;;;;4.04;82.37;99258.13;5063981;28;20241;-81
2021/11/26 07:07:40;;;;;;;17.03;6.97;;;;;;;4.09;82.69;99253.47;5062459;28;20217;-80
2021/11/26 07:10:09;;;;;;;20.13;7.87;;;;;;;4.09;82.75;99255.25;5062278;28;20229;-80
2021/11/26 07:12:37;;;;;;;18.00;7.07;;;;;;;4.13;81.89;99252.31;5033877;28;20209;-80
2021/11/26 07:15:05;;;;;;;18.03;7.23;;;;;;;4.12;82.45;99247.16;5062539;28;20220;-80
2021/11/26 07:17:32;;;;;;;13.97;7.33;;;;;;;4.12;82.63;99242.72;5061433;28;20215;-81
2021/11/26 07:19:59;;;;;;;18.73;6.83;;;;;;;4.18;81.94;99233.59;5061142;28;20292;-81
2021/11/26 07:22:26;;;;;;;13.13;6.90;;;;;;;4.18;81.92;99239.72;5045694;28;20206;-80
2021/11/26 07:24:53;;;;;;;18.60;5.97;;;;;;;4.21;81.51;99227.31;5058840;28;20209;-81
2021/11/26 07:27:20;;;;;;;15.57;7.57;;;;;;;4.17;82.15;99218.72;5045792;28;20582;-80
2021/11/26 07:29:48;;;;;;;20.30;7.63;;;;;;;4.18;81.32;99223.91;5059470;28;20312;-81
2021/11/26 07:32:15;;;;;;;15.97;6.70;;;;;;;4.16;81.93;99219.66;5059732;28;20210;-81
2021/11/26 07:34:42;;;;;;;12.57;6.63;;;;;;;4.16;81.40;99220.50;5037420;28;20292;-80
2021/11/26 07:37:09;;;;;;;13.47;6.50;;;;;;;4.18;81.68;99216.00;5062929;28;20209;-81
2021/11/26 07:39:37;;;;;;;15.53;6.90;;;;;;;4.21;81.06;99209.72;5062349;28;20241;-81
2021/11/26 07:42:05;;;;;;;15.80;6.43;;;;;;;4.23;81.23;99201.72;5054390;28;20211;-82
2021/11/26 07:44:33;;;;;;;16.87;7.07;;;;;;;4.22;81.33;99207.94;5058583;28;20237;-81
2021/11/26 07:47:01;;;;;;;18.30;7.13;;;;;;;4.23;81.46;99201.72;5062640;28;20216;-81
2021/11/26 07:49:28;;;;;;;21.17;8.27;;;;;;;4.21;81.37;99199.16;5051629;28;20230;-81
2021/11/26 07:51:56;;;;;;;17.87;6.57;;;;;;;4.23;80.90;99185.91;5061061;28;20205;-81
2021/11/26 07:54:22;;;;;;;15.03;6.00;;;;;;;4.25;80.92;99189.28;5060642;28;20316;-81
2021/11/26 07:56:49;;;;;;;18.10;6.03;;;;;;;4.26;81.06;99181.31;5060799;28;20205;-81
2021/11/26 07:59:15;;;;;;;13.07;6.43;;;;;;;4.29;81.17;99177.63;5059552;28;20232;-80
2021/11/26 08:01:43;;;;;;;18.77;6.33;;;;;;;4.29;80.55;99178.47;5060849;28;20211;-81
2021/11/26 08:04:14;;;;;;;14.13;6.20;;;;;;;4.28;81.06;99168.03;5056374;28;20264;-81
2021/11/26 08:06:42;;;;;;;11.90;6.23;;;;;;;4.30;80.26;99171.44;5056365;28;20656;-81
2021/11/26 08:09:08;;;;;;;15.30;5.60;;;;;;;4.27;80.83;99168.97;5061178;28;20240;-81
2021/11/26 08:11:35;;;;;;;18.13;6.40;;;;;;;4.29;81.01;99160.03;5041901;28;20293;-81
2021/11/26 08:14:02;;;;;;;17.47;5.83;;;;;;;4.29;79.90;99160.03;5048912;28;20217;-80
2021/11/26 08:16:28;;;;;;;10.93;6.13;;;;;;;4.32;80.22;99161.59;5061810;28;20276;-80
2021/11/26 08:18:55;;;;;;;13.70;6.03;;;;;;;4.31;79.93;99157.28;5060868;28;20230;-81
2021/11/26 08:21:23;;;;;;;13.13;5.93;;;;;;;4.31;80.51;99157.28;5044134;28;20214;-80
2021/11/26 08:23:49;;;;;;;14.73;5.77;;;;;;;4.30;80.14;99156.44;5047712;28;20599;-81
2021/11/26 08:26:16;;;;;;;15.00;6.53;;;;;;;4.32;80.36;99151.91;5058985;28;20210;-81
2021/11/26 08:28:43;;;;;;;19.53;6.27;;;;;;;4.34;79.87;99151.81;5048741;28;20265;-80
2021/11/26 08:31:10;;;;;;;13.10;5.83;;;;;;;4.37;79.44;99146.38;5056300;28;20213;-81
2021/11/26 08:33:36;;;;;;;12.60;5.73;;;;;;;4.37;79.69;99136.66;5048452;28;20236;-81
2021/11/26 08:36:03;;;;;;;14.40;5.43;;;;;;;4.39;80.11;99137.44;5059129;28;20219;-81
2021/11/26 08:38:31;;;;;;;16.33;6.10;;;;;;;4.39;80.13;99129.53;5059228;28;20376;-81
2021/11/26 08:40:58;;;;;;;9.93;5.80;;;;;;;4.42;79.85;99126.69;5058881;28;20292;-81
2021/11/26 08:43:24;;;;;;;12.63;5.97;;;;;;;4.44;79.33;99127.47;5059265;28;20233;-81
2021/11/26 08:45:51;;;;;;;11.97;6.07;;;;;;;4.45;79.37;99123.03;5058591;28;20281;-80
2021/11/26 08:48:18;;;;;;;13.67;6.00;;;;;;;4.48;79.72;99117.53;5058736;28;20205;-81
2021/11/26 08:50:45;;;;;;;14.07;5.70;;;;;;;4.50;79.53;99110.38;5058921;28;20214;-81
2021/11/26 08:53:13;;;;;;;13.10;6.07;;;;;;;4.51;79.74;99112.06;5045985;28;20217;-82
2021/11/26 08:55:46;;;;;;;14.13;5.80;;;;;;;4.54;79.00;99104.84;5058285;28;20213;-81
2021/11/26 08:58:14;;;;;;;15.20;5.90;;;;;;;4.55;78.91;99097.75;5059796;28;20563;-81
2021/11/26 09:00:41;;;;;;;14.63;6.10;;;;;;;4.56;79.22;99103.88;5060046;28;20217;-81
2021/11/26 09:03:08;;;;;;;12.50;5.90;;;;;;;4.53;79.67;99099.66;5060089;28;20205;-81
2021/11/26 09:05:36;;;;;;;10.90;5.60;;;;;;;4.56;79.19;99099.47;5058731;28;20211;-81
2021/11/26 09:08:04;;;;;;;12.43;6.97;;;;;;;4.58;79.60;99097.56;5060187;28;20236;-81
2021/11/26 09:10:33;;;;;;;13.03;6.73;;;;;;;4.61;79.63;99094.75;5058873;28;20328;-82
2021/11/26 09:13:01;;;;;;;13.53;6.27;;;;;;;4.61;79.01;99110.56;5039013;28;20210;-81
2021/11/26 09:15:28;;;;;;;13.57;6.00;;;;;;;4.60;79.65;99103.59;5058109;28;20700;-81
2021/11/26 09:17:54;;;;;;;13.77;6.80;;;;;;;4.58;79.59;99102.00;5058220;28;20220;-80
2021/11/26 09:20:21;;;;;;;15.93;7.37;;;;;;;4.58;79.31;99102.00;5058496;28;20310;-80
2021/11/26 09:22:48;;;;;;;13.47;6.23;;;;;;;4.58;79.46;99094.09;5054737;28;20624;-81
2021/11/26 09:25:15;;;;;;;12.97;6.57;;;;;;;4.58;79.49;99102.84;5051501;28;20245;-81
2021/11/26 09:27:42;;;;;;;11.40;5.97;;;;;;;4.57;79.80;99098.53;5041157;28;20220;-82
2021/11/26 09:30:16;;;;;;;15.67;7.07;;;;;;;4.56;79.77;99094.19;5059363;28;20229;-81
2021/11/26 09:32:42;;;;;;;15.77;7.43;;;;;;;4.56;79.68;99093.34;5060146;28;20213;-81
2021/11/26 09:35:09;;;;;;;16.77;7.03;;;;;;;4.56;80.04;99088.06;5059191;28;20281;-81
2021/11/26 09:37:36;;;;;;;12.60;5.90;;;;;;;4.54;79.80;99080.25;5059705;28;20215;-81
2021/11/26 09:40:04;;;;;;;13.57;6.47;;;;;;;4.53;80.24;99078.56;5058461;28;20718;-80
2021/11/26 09:42:32;;;;;;;16.87;7.37;;;;;;;4.56;79.88;99074.88;5040759;28;20390;-81
2021/11/26 09:45:00;;;;;;;14.13;7.23;;;;;;;4.54;79.81;99072.34;5050283;28;20297;-82
2021/11/26 09:47:28;;;;;;;17.47;8.40;;;;;;;4.53;79.84;99073.28;5059000;28;20275;-80
2021/11/26 09:49:55;;;;;;;14.40;7.80;;;;;;;4.50;80.03;99073.47;5059368;28;20707;-80
2021/11/26 09:52:21;;;;;;;11.80;6.67;;;;;;;4.50;80.22;99066.41;5059568;28;20213;-81
2021/11/26 09:54:49;;;;;;;13.87;6.77;;;;;;;4.47;80.58;99064.00;5059134;28;20223;-81
2021/11/26 09:57:16;;;;;;;12.93;7.03;;;;;;;4.46;80.69;99062.31;5057968;28;20210;-81
2021/11/26 09:59:45;;;;;;;19.77;7.87;;;;;;;4.45;80.45;99065.88;5059649;28;20239;-81
2021/11/26 10:02:14;;;;;;;16.43;8.27;;;;;;;4.45;80.60;99060.63;5059324;28;20299;-81
2021/11/26 10:04:42;;;;;;;15.23;8.10;;;;;;;4.45;81.42;99050.06;5060236;28;20235;-82
2021/11/26 10:07:09;;;;;;;14.33;7.67;;;;;;;4.44;81.00;99042.25;5060565;28;20213;-80
2021/11/26 10:09:37;;;;;;;14.13;6.63;;;;;;;4.43;81.30;99037.94;5060476;28;20225;-82
2021/11/26 10:12:08;;;;;;;13.57;7.67;;;;;;;4.43;81.38;99037.94;5058085;28;20648;-81
2021/11/26 10:14:36;;;;;;;13.73;7.07;;;;;;;4.40;81.10;99028.41;5035966;28;20278;-80
2021/11/26 10:17:07;;;;;;;12.70;6.80;;;;;;;4.40;81.25;99031.06;5024651;28;20244;-80
2021/11/26 10:19:36;;;;;;;13.20;7.03;;;;;;;4.39;81.32;99023.25;5027574;28;20317;-80
2021/11/26 10:22:16;;;;;;;13.17;7.73;;;;;;;4.37;81.79;99027.75;5043570;28;20316;-80
2021/11/26 10:24:57;;;;;;;16.03;7.40;;;;;;;4.37;82.02;99018.06;5037741;28;20743;-80
2021/11/26 10:27:34;;;;;;;13.50;7.40;;;;;;;4.35;81.81;99009.41;5055701;28;20218;-80
2021/11/26 10:30:15;;;;;;;17.57;9.77;;;;;;;4.36;82.15;99004.97;5038832;28;20778;-80
2021/11/26 10:32:55;;;;;;;12.93;6.97;;;;;;;4.37;82.63;98998.78;5046366;28;20206;-80
2021/11/26 10:35:22;;;;;;;12.40;6.77;;;;;;;4.38;82.28;98989.91;5054849;28;20208;-80
2021/11/26 10:38:05;;;;;;;13.60;7.70;;;;;;;4.36;82.57;98981.25;5054961;28;20224;-80
2021/11/26 10:40:33;;;;;;;9.33;5.83;;;;;;;4.35;82.35;98985.69;5053333;28;21687;-80
2021/11/26 10:43:02;;;;;;;13.33;6.97;;;;;;;4.32;82.29;98974.50;5046793;28;20210;-80
2021/11/26 10:45:41;;;;;;;12.23;7.10;;;;;;;4.32;82.56;98972.69;5048540;28;20328;-81
2021/11/26 10:48:32;;;;;;;11.13;6.70;;;;;;;4.33;82.37;98965.66;5014093;28;20202;-80
2021/11/26 10:51:05;;;;;;;11.33;6.47;;;;;;;4.33;82.82;98966.50;5029661;28;20205;-80
2021/11/26 10:59:03;;;;;;;13.30;6.47;;;;;;;4.29;82.81;98943.94;5053160;28;20244;-80
2021/11/26 11:01:30;;;;;;;11.23;6.50;;;;;;;4.27;83.24;98940.56;5048786;28;20256;-81
2021/11/26 11:04:13;;;;;;;11.67;8.63;;;;;;;4.27;83.11;98932.66;5048406;28;20259;-80
2021/11/26 11:06:39;;;;;;;17.80;7.63;;;;;;;4.29;83.23;98927.28;5054386;28;20581;-81
2021/11/26 11:09:10;;;;;;;17.33;9.03;;;;;;;4.29;83.13;98929.91;5055309;28;20265;-81
2021/11/26 11:11:38;;;;;;;12.67;6.20;;;;;;;4.30;83.12;98928.97;5020215;28;20203;-81
2021/11/26 11:14:13;;;;;;;12.63;6.13;;;;;;;4.27;83.26;98923.91;5049731;28;20671;-81
2021/11/26 11:16:46;;;;;;;13.03;6.97;;;;;;;4.27;83.35;98924.75;5056511;28;20211;-80
2021/11/26 11:19:13;;;;;;;12.30;7.87;;;;;;;4.28;83.04;98915.91;5055849;28;20765;-80
2021/11/26 11:21:40;;;;;;;11.83;6.77;;;;;;;4.30;83.19;98908.72;5048645;28;20230;-80
2021/11/26 11:24:10;;;;;;;10.20;5.77;;;;;;;4.32;83.29;98904.19;5034682;28;20321;-81
2021/11/26 11:26:39;;;;;;;8.50;6.13;;;;;;;4.32;83.51;98905.97;5024244;28;20206;-80
2021/11/26 11:29:06;;;;;;;8.53;5.47;;;;;;;4.31;83.42;98894.59;5026360;28;20276;-80
2021/11/26 11:31:33;;;;;;;11.13;6.17;;;;;;;4.31;83.14;98899.00;5025594;28;20206;-80
2021/11/26 11:34:01;;;;;;;12.23;7.50;;;;;;;4.31;83.23;98893.75;5028616;28;20210;-81
2021/11/26 11:36:28;;;;;;;9.90;6.13;;;;;;;4.33;83.65;98891.84;5030986;28;20232;-81